Time;durP1;ratioP1;P1;durP2;ratioP2;P2;SDS_P1;SDS_P2;PMS_P1;PMS_P2;Temp;Humidity;BMP_temperature;BMP_pressure;BME280_temperature;BME280_humidity;BME280_pressure;Samples;Min_cycle;Max_cycle;Signal;HPM_P1;HPM_P2
2022/10/10 00:02:16;;;;;;;7.80;4.00;;;;;;;;;;5156885;27;20455;-72
2022/10/10 00:04:44;;;;;;;7.03;4.87;;;;;;;;;;5156010;27;20455;-72
2022/10/10 00:07:11;;;;;;;8.37;4.00;;;;;;;;;;5156805;27;20819;-72
2022/10/10 00:09:38;;;;;;;5.33;4.50;;;;;;;;;;5156372;27;20451;-72
2022/10/10 00:12:05;;;;;;;5.77;4.00;;;;;;;;;;5156258;27;20485;-72
2022/10/10 00:14:34;;;;;;;5.80;4.60;;;;;;;;;;5155810;27;20487;-72
2022/10/10 00:17:01;;;;;;;5.70;3.90;;;;;;;;;;5156494;27;20948;-71
2022/10/10 00:19:28;;;;;;;4.00;3.60;;;;;;;;;;5156173;27;20451;-72
2022/10/10 00:21:55;;;;;;;4.60;4.07;;;;;;;;;;5156269;27;20448;-72
2022/10/10 00:24:22;;;;;;;6.07;4.20;;;;;;;;;;5155713;27;20952;-71
2022/10/10 00:26:49;;;;;;;5.43;3.77;;;;;;;;;;5156325;27;20960;-72
2022/10/10 00:29:17;;;;;;;6.17;4.47;;;;;;;;;;5156300;27;20458;-72
2022/10/10 00:31:45;;;;;;;4.83;4.23;;;;;;;;;;5156267;27;20443;-72
2022/10/10 00:34:12;;;;;;;8.17;4.67;;;;;;;;;;5155355;27;20447;-72
2022/10/10 00:36:39;;;;;;;8.57;4.70;;;;;;;;;;5155749;27;20471;-72
2022/10/10 00:39:07;;;;;;;5.87;4.23;;;;;;;;;;5156390;27;20535;-72
2022/10/10 00:41:34;;;;;;;4.77;3.67;;;;;;;;;;5155761;27;20458;-72
2022/10/10 00:44:02;;;;;;;4.63;3.67;;;;;;;;;;5155294;27;20447;-72
2022/10/10 00:46:29;;;;;;;6.60;4.10;;;;;;;;;;5154627;27;20476;-72
2022/10/10 00:48:58;;;;;;;6.33;3.97;;;;;;;;;;5155942;27;20456;-72
2022/10/10 00:51:25;;;;;;;7.07;4.60;;;;;;;;;;5155476;27;20453;-72
2022/10/10 00:53:53;;;;;;;4.93;3.87;;;;;;;;;;5155249;27;20455;-72
2022/10/10 00:56:22;;;;;;;9.33;4.60;;;;;;;;;;5154834;27;20858;-72
2022/10/10 00:58:51;;;;;;;3.97;3.57;;;;;;;;;;5155671;27;20792;-72
2022/10/10 01:01:19;;;;;;;6.17;3.83;;;;;;;;;;5155327;27;20447;-72
2022/10/10 01:03:46;;;;;;;5.00;4.33;;;;;;;;;;5154636;27;20463;-72
2022/10/10 01:06:14;;;;;;;15.80;3.70;;;;;;;;;;5155306;27;20491;-72
2022/10/10 01:08:42;;;;;;;7.00;3.80;;;;;;;;;;5155288;27;20470;-72
2022/10/10 01:11:17;;;;;;;5.40;3.67;;;;;;;;;;5155078;27;20460;-72
2022/10/10 01:13:49;;;;;;;7.70;3.80;;;;;;;;;;5154670;27;20455;-71
2022/10/10 01:16:19;;;;;;;5.87;4.80;;;;;;;;;;5155321;27;20494;-72
2022/10/10 01:18:51;;;;;;;5.53;3.77;;;;;;;;;;5155334;27;20452;-72
2022/10/10 01:21:28;;;;;;;6.17;5.00;;;;;;;;;;5152386;27;20458;-72
2022/10/10 01:24:14;;;;;;;8.30;4.67;;;;;;;;;;5154732;27;20443;-71
2022/10/10 01:26:59;;;;;;;9.00;4.93;;;;;;;;;;5154893;27;20968;-72
2022/10/10 01:29:30;;;;;;;11.33;5.90;;;;;;;;;;5154764;27;20451;-72
2022/10/10 01:32:04;;;;;;;5.47;4.00;;;;;;;;;;5155152;27;20450;-71
2022/10/10 01:34:36;;;;;;;4.87;4.37;;;;;;;;;;5154413;27;20492;-72
2022/10/10 01:37:05;;;;;;;7.93;4.60;;;;;;;;;;5155093;27;20432;-72
2022/10/10 01:39:36;;;;;;;5.53;4.10;;;;;;;;;;5154556;27;20451;-72
2022/10/10 01:42:07;;;;;;;8.80;5.80;;;;;;;;;;5155084;27;20438;-72
2022/10/10 01:44:35;;;;;;;9.40;6.87;;;;;;;;;;5154321;27;20794;-72
2022/10/10 01:47:02;;;;;;;8.13;5.23;;;;;;;;;;5154653;27;20458;-72
2022/10/10 01:49:31;;;;;;;8.00;4.30;;;;;;;;;;5154844;27;20436;-72
2022/10/10 01:52:03;;;;;;;4.70;4.13;;;;;;;;;;5154803;27;20452;-72
2022/10/10 01:54:34;;;;;;;8.67;4.70;;;;;;;;;;5152840;27;20471;-71
2022/10/10 01:57:07;;;;;;;13.90;5.93;;;;;;;;;;5154884;27;20443;-72
2022/10/10 01:59:41;;;;;;;9.37;4.67;;;;;;;;;;5154660;27;20439;-72
2022/10/10 02:02:13;;;;;;;9.07;4.90;;;;;;;;;;5154443;27;20441;-73
2022/10/10 02:04:42;;;;;;;9.90;5.20;;;;;;;;;;5153999;27;20471;-72
2022/10/10 02:07:11;;;;;;;5.77;4.77;;;;;;;;;;5154411;27;20789;-72
2022/10/10 02:09:40;;;;;;;8.33;5.40;;;;;;;;;;5154598;27;20435;-72
2022/10/10 02:12:08;;;;;;;8.73;5.10;;;;;;;;;;5154387;27;20459;-72
2022/10/10 02:14:40;;;;;;;15.40;5.00;;;;;;;;;;5153749;27;20471;-72
2022/10/10 02:17:09;;;;;;;5.03;4.50;;;;;;;;;;5154235;27;20432;-72
2022/10/10 02:19:37;;;;;;;8.20;6.07;;;;;;;;;;5152058;27;20448;-72
2022/10/10 02:22:05;;;;;;;6.70;5.00;;;;;;;;;;5154041;27;20442;-72
2022/10/10 02:24:33;;;;;;;7.30;4.70;;;;;;;;;;5153521;27;20451;-72
2022/10/10 02:27:04;;;;;;;7.30;5.70;;;;;;;;;;5154452;27;20936;-72
2022/10/10 02:29:32;;;;;;;8.40;6.60;;;;;;;;;;5154350;27;20443;-72
2022/10/10 02:32:03;;;;;;;9.47;5.60;;;;;;;;;;5154146;27;20815;-72
2022/10/10 02:34:34;;;;;;;8.07;5.80;;;;;;;;;;5153352;27;20462;-72
2022/10/10 02:37:03;;;;;;;6.90;5.57;;;;;;;;;;5154026;27;20471;-72
2022/10/10 02:39:31;;;;;;;9.33;5.43;;;;;;;;;;5154083;27;20958;-72
2022/10/10 02:41:58;;;;;;;8.00;4.70;;;;;;;;;;5153924;27;20447;-72
2022/10/10 02:44:25;;;;;;;12.73;6.80;;;;;;;;;;5153311;27;20440;-72
2022/10/10 02:46:53;;;;;;;10.57;5.97;;;;;;;;;;5153972;27;20450;-72
2022/10/10 02:49:25;;;;;;;5.83;4.73;;;;;;;;;;5153860;27;20457;-72
2022/10/10 02:51:52;;;;;;;6.53;5.03;;;;;;;;;;5154283;27;20439;-72
2022/10/10 02:54:19;;;;;;;9.20;5.00;;;;;;;;;;5152123;27;20447;-72
2022/10/10 02:56:46;;;;;;;6.30;5.40;;;;;;;;;;5153615;27;20483;-72
2022/10/10 02:59:13;;;;;;;10.67;6.30;;;;;;;;;;5153931;27;20432;-72
2022/10/10 03:01:40;;;;;;;9.47;5.90;;;;;;;;;;5153663;27;20451;-72
2022/10/10 03:04:07;;;;;;;8.97;5.53;;;;;;;;;;5153218;27;20448;-72
2022/10/10 03:06:36;;;;;;;6.90;5.23;;;;;;;;;;5153785;27;20846;-71
2022/10/10 03:09:03;;;;;;;5.63;5.03;;;;;;;;;;5153747;27;20956;-72
2022/10/10 03:11:31;;;;;;;6.30;5.47;;;;;;;;;;5157025;27;20466;-71
2022/10/10 03:13:58;;;;;;;7.03;5.40;;;;;;;;;;5157158;27;20443;-71
2022/10/10 03:16:25;;;;;;;10.03;5.97;;;;;;;;;;5157257;27;20487;-72
2022/10/10 03:18:52;;;;;;;5.53;5.03;;;;;;;;;;5157561;27;20439;-72
2022/10/10 03:21:19;;;;;;;7.80;5.10;;;;;;;;;;5154879;27;20451;-72
2022/10/10 03:23:48;;;;;;;9.90;5.57;;;;;;;;;;5156835;27;20494;-72
2022/10/10 03:26:15;;;;;;;5.40;4.70;;;;;;;;;;5157457;27;20837;-72
2022/10/10 03:28:42;;;;;;;9.83;5.40;;;;;;;;;;5157053;27;20447;-72
2022/10/10 03:31:09;;;;;;;29.37;17.10;;;;;;;;;;5157243;27;20818;-72
2022/10/10 03:33:36;;;;;;;13.63;8.43;;;;;;;;;;5156639;27;20444;-72
2022/10/10 03:36:03;;;;;;;8.40;5.57;;;;;;;;;;5156941;27;20550;-72
2022/10/10 03:38:30;;;;;;;8.03;6.30;;;;;;;;;;5157268;27;20454;-71
2022/10/10 03:40:59;;;;;;;9.73;5.77;;;;;;;;;;5157058;27;20463;-71
2022/10/10 03:43:26;;;;;;;7.93;6.30;;;;;;;;;;5157031;27;20451;-71
2022/10/10 03:45:53;;;;;;;7.83;5.90;;;;;;;;;;5157112;27;20468;-71
2022/10/10 03:48:20;;;;;;;14.57;9.70;;;;;;;;;;5157093;27;20443;-71
2022/10/10 03:50:47;;;;;;;10.57;7.00;;;;;;;;;;5157032;27;20532;-71
2022/10/10 03:53:14;;;;;;;8.10;6.40;;;;;;;;;;5157116;27;20933;-71
2022/10/10 03:55:42;;;;;;;10.60;6.53;;;;;;;;;;5154388;27;20491;-72
2022/10/10 03:58:10;;;;;;;10.20;7.53;;;;;;;;;;5156830;27;20474;-72
2022/10/10 04:00:37;;;;;;;11.53;6.50;;;;;;;;;;5156681;27;20442;-72
2022/10/10 04:03:05;;;;;;;8.97;6.43;;;;;;;;;;5156740;27;20440;-71
2022/10/10 04:05:33;;;;;;;10.40;6.37;;;;;;;;;;5155812;27;20475;-71
2022/10/10 04:08:00;;;;;;;8.73;7.27;;;;;;;;;;5156618;27;20466;-72
2022/10/10 04:10:27;;;;;;;9.07;7.00;;;;;;;;;;5156552;27;20543;-72
2022/10/10 04:12:54;;;;;;;16.03;9.90;;;;;;;;;;5156382;27;20463;-72
2022/10/10 04:15:24;;;;;;;20.50;12.70;;;;;;;;;;5155994;27;20469;-72
2022/10/10 04:17:51;;;;;;;13.50;9.07;;;;;;;;;;5156199;27;20457;-72
2022/10/10 04:20:18;;;;;;;9.90;6.87;;;;;;;;;;5153645;27;20448;-72
2022/10/10 04:22:46;;;;;;;8.43;6.60;;;;;;;;;;5156072;27;20448;-72
2022/10/10 04:25:13;;;;;;;8.80;6.30;;;;;;;;;;5155833;27;20463;-72
2022/10/10 04:27:40;;;;;;;12.33;6.57;;;;;;;;;;5156409;27;20920;-71
2022/10/10 04:30:08;;;;;;;14.50;6.67;;;;;;;;;;5156430;27;20428;-71
2022/10/10 04:32:36;;;;;;;9.30;7.57;;;;;;;;;;5156017;27;20443;-72
2022/10/10 04:35:04;;;;;;;11.80;7.93;;;;;;;;;;5153017;27;20470;-71
2022/10/10 04:37:31;;;;;;;7.20;6.20;;;;;;;;;;5154762;27;20914;-72
2022/10/10 04:39:58;;;;;;;7.53;5.57;;;;;;;;;;5155064;27;20463;-71
2022/10/10 04:42:25;;;;;;;8.73;6.43;;;;;;;;;;5155954;27;20452;-71
2022/10/10 04:44:53;;;;;;;14.60;7.17;;;;;;;;;;5155369;27;20474;-72
2022/10/10 04:47:20;;;;;;;14.47;9.00;;;;;;;;;;5155550;27;20454;-71
2022/10/10 04:49:48;;;;;;;8.73;7.10;;;;;;;;;;5155754;27;20790;-72
2022/10/10 04:52:15;;;;;;;13.40;6.57;;;;;;;;;;5155163;27;20462;-71
2022/10/10 04:54:43;;;;;;;10.50;6.20;;;;;;;;;;5153416;27;20473;-72
2022/10/10 04:57:10;;;;;;;9.93;6.50;;;;;;;;;;5155258;27;20490;-71
2022/10/10 04:59:37;;;;;;;8.97;6.43;;;;;;;;;;5155180;27;20439;-72
2022/10/10 05:02:04;;;;;;;7.70;6.30;;;;;;;;;;5155501;27;20452;-71
2022/10/10 05:04:31;;;;;;;10.00;7.40;;;;;;;;;;5154620;27;20452;-71
2022/10/10 05:07:00;;;;;;;11.33;7.73;;;;;;;;;;5155055;27;20456;-71
2022/10/10 05:09:27;;;;;;;9.33;6.30;;;;;;;;;;5155123;27;20435;-71
2022/10/10 05:11:54;;;;;;;9.13;7.37;;;;;;;;;;5154867;27;20463;-71
2022/10/10 05:14:21;;;;;;;10.07;6.60;;;;;;;;;;5154351;27;20455;-71
2022/10/10 05:16:48;;;;;;;8.73;7.40;;;;;;;;;;5155011;27;20493;-71
2022/10/10 05:19:16;;;;;;;16.87;10.07;;;;;;;;;;5154886;27;20463;-71
2022/10/10 05:21:44;;;;;;;12.70;7.53;;;;;;;;;;5152468;27;20448;-71
2022/10/10 05:24:12;;;;;;;10.97;6.47;;;;;;;;;;5154482;27;20432;-71
2022/10/10 05:26:39;;;;;;;11.17;7.50;;;;;;;;;;5154570;27;20541;-72
2022/10/10 05:29:06;;;;;;;6.90;6.00;;;;;;;;;;5155053;27;20810;-72
2022/10/10 05:31:34;;;;;;;7.23;6.07;;;;;;;;;;5154720;27;20455;-72
2022/10/10 05:34:01;;;;;;;12.27;5.60;;;;;;;;;;5153637;27;20498;-72
2022/10/10 05:36:28;;;;;;;11.83;6.47;;;;;;;;;;5155224;27;20594;-72
2022/10/10 05:38:56;;;;;;;8.10;5.90;;;;;;;;;;5155073;27;20444;-72
2022/10/10 05:41:24;;;;;;;7.57;6.83;;;;;;;;;;5154521;27;20985;-72
2022/10/10 05:43:52;;;;;;;15.20;9.23;;;;;;;;;;5154121;27;20448;-71
2022/10/10 05:46:21;;;;;;;9.50;7.47;;;;;;;;;;5154546;27;20474;-71
2022/10/10 05:48:49;;;;;;;10.47;6.20;;;;;;;;;;5154623;27;20479;-71
2022/10/10 05:51:16;;;;;;;20.67;18.57;;;;;;;;;;5154804;27;20454;-71
2022/10/10 05:53:43;;;;;;;13.13;9.90;;;;;;;;;;5154228;27;20462;-71
2022/10/10 05:56:10;;;;;;;6.43;5.73;;;;;;;;;;5153227;27;20824;-71
2022/10/10 05:58:39;;;;;;;8.70;6.13;;;;;;;;;;5154461;27;20438;-71
2022/10/10 06:01:06;;;;;;;15.20;9.53;;;;;;;;;;5154355;27;20446;-71
2022/10/10 06:03:34;;;;;;;12.50;10.03;;;;;;;;;;5153897;27;20455;-71
2022/10/10 06:06:01;;;;;;;15.53;9.97;;;;;;;;;;5154452;27;20473;-71
2022/10/10 06:08:30;;;;;;;12.03;8.20;;;;;;;;;;5154337;27;20451;-71
2022/10/10 06:11:01;;;;;;;16.13;8.00;;;;;;;;;;5154322;27;20465;-71
2022/10/10 06:13:28;;;;;;;8.27;7.37;;;;;;;;;;5153975;27;20440;-71
2022/10/10 06:15:57;;;;;;;11.70;6.43;;;;;;;;;;5154188;27;20471;-71
2022/10/10 06:18:24;;;;;;;7.73;6.30;;;;;;;;;;5154255;27;20458;-70
2022/10/10 06:20:51;;;;;;;10.40;6.80;;;;;;;;;;5152138;27;20451;-71
2022/10/10 06:23:19;;;;;;;13.93;6.70;;;;;;;;;;5154638;27;20516;-71
2022/10/10 06:25:46;;;;;;;6.50;5.07;;;;;;;;;;5153813;27;20471;-71
2022/10/10 06:28:13;;;;;;;12.43;8.33;;;;;;;;;;5151556;27;20986;-72
2022/10/10 06:30:41;;;;;;;6.70;5.70;;;;;;;;;;5154072;27;20447;-72
2022/10/10 06:33:09;;;;;;;5.90;4.80;;;;;;;;;;5153620;27;20451;-72
2022/10/10 06:35:39;;;;;;;9.73;6.83;;;;;;;;;;5153487;27;20468;-72
2022/10/10 06:38:06;;;;;;;41.07;27.63;;;;;;;;;;5153948;27;20484;-72
2022/10/10 06:40:33;;;;;;;8.57;5.40;;;;;;;;;;5153370;27;20452;-72
2022/10/10 06:43:00;;;;;;;5.10;4.00;;;;;;;;;;5153705;27;20444;-72
2022/10/10 06:45:28;;;;;;;9.13;3.87;;;;;;;;;;5155146;27;20475;-72
2022/10/10 06:47:55;;;;;;;5.23;4.73;;;;;;;;;;5157926;27;20538;-72
2022/10/10 06:50:24;;;;;;;20.30;5.77;;;;;;;;;;5157870;27;20453;-72
2022/10/10 06:52:51;;;;;;;4.93;4.10;;;;;;;;;;5157463;27;20447;-71
2022/10/10 06:55:18;;;;;;;4.27;3.40;;;;;;;;;;5156401;27;20834;-71
2022/10/10 06:57:45;;;;;;;5.50;3.90;;;;;;;;;;5157549;27;20472;-71
2022/10/10 07:00:13;;;;;;;7.20;4.10;;;;;;;;;;5157945;27;20901;-71
2022/10/10 07:02:41;;;;;;;7.03;4.80;;;;;;;;;;5157487;27;20446;-72
2022/10/10 07:05:10;;;;;;;4.50;4.10;;;;;;;;;;5157094;27;20478;-71
2022/10/10 07:07:39;;;;;;;6.53;4.43;;;;;;;;;;5157677;27;20915;-71
2022/10/10 07:10:07;;;;;;;5.20;3.53;;;;;;;;;;5152603;27;20458;-71
2022/10/10 07:12:34;;;;;;;8.57;4.33;;;;;;;;;;5153316;27;20461;-71
2022/10/10 07:15:01;;;;;;;7.83;4.67;;;;;;;;;;5154517;27;20467;-71
2022/10/10 07:17:30;;;;;;;9.40;5.50;;;;;;;;;;5154081;27;20504;-71
2022/10/10 07:19:57;;;;;;;6.10;4.30;;;;;;;;;;5154114;27;20824;-71
2022/10/10 07:22:24;;;;;;;9.90;4.50;;;;;;;;;;5137443;27;20457;-71
2022/10/10 07:24:53;;;;;;;5.70;3.70;;;;;;;;;;5133459;27;20495;-72
2022/10/10 07:27:20;;;;;;;7.90;4.17;;;;;;;;;;5134036;27;20539;-71
2022/10/10 07:29:47;;;;;;;4.97;3.70;;;;;;;;;;5134402;27;20844;-72
2022/10/10 07:32:14;;;;;;;5.97;4.10;;;;;;;;;;5134639;27;20448;-71
2022/10/10 07:34:41;;;;;;;5.97;4.80;;;;;;;;;;5133847;27;20468;-71
2022/10/10 07:37:08;;;;;;;7.13;3.83;;;;;;;;;;5141301;27;20492;-72
2022/10/10 07:39:36;;;;;;;5.73;3.60;;;;;;;;;;5134535;27;20955;-71
2022/10/10 07:42:04;;;;;;;5.17;3.80;;;;;;;;;;5135057;27;20448;-71
2022/10/10 07:44:31;;;;;;;5.90;4.70;;;;;;;;;;5133426;27;20490;-72
2022/10/10 07:46:58;;;;;;;4.70;4.23;;;;;;;;;;5151005;27;20447;-71
2022/10/10 07:49:25;;;;;;;7.10;3.77;;;;;;;;;;5155235;27;20447;-72
2022/10/10 07:51:53;;;;;;;5.47;3.60;;;;;;;;;;5154932;27;20444;-71
2022/10/10 07:54:20;;;;;;;9.00;4.17;;;;;;;;;;5154551;27;20485;-72
2022/10/10 07:56:47;;;;;;;5.60;4.80;;;;;;;;;;5155065;27;20845;-72
2022/10/10 07:59:15;;;;;;;7.50;6.53;;;;;;;;;;5155196;27;20468;-72
2022/10/10 08:01:42;;;;;;;5.20;3.53;;;;;;;;;;5155016;27;20456;-71
2022/10/10 08:04:10;;;;;;;5.03;4.33;;;;;;;;;;5155126;27;20803;-72
2022/10/10 08:06:37;;;;;;;5.00;3.97;;;;;;;;;;5155263;27;20466;-72
2022/10/10 08:09:04;;;;;;;4.43;3.83;;;;;;;;;;5155069;27;20456;-72
2022/10/10 08:11:31;;;;;;;4.50;4.10;;;;;;;;;;5155121;27;20459;-72
2022/10/10 08:13:58;;;;;;;4.60;3.90;;;;;;;;;;5154916;27;20439;-72
2022/10/10 08:16:27;;;;;;;7.80;4.47;;;;;;;;;;5155190;27;20938;-72
2022/10/10 08:18:54;;;;;;;9.70;4.60;;;;;;;;;;5155123;27;20447;-72
2022/10/10 08:21:22;;;;;;;4.70;4.30;;;;;;;;;;5154126;27;20943;-72
2022/10/10 08:23:49;;;;;;;7.10;4.73;;;;;;;;;;5149102;27;20461;-72
2022/10/10 08:26:18;;;;;;;5.37;3.43;;;;;;;;;;5133486;27;20836;-72
2022/10/10 08:28:47;;;;;;;6.83;3.67;;;;;;;;;;5134001;27;20443;-72
2022/10/10 08:31:15;;;;;;;10.53;4.00;;;;;;;;;;5134301;27;20784;-72
2022/10/10 08:33:45;;;;;;;4.83;4.10;;;;;;;;;;5133508;27;20444;-72
2022/10/10 08:36:14;;;;;;;4.50;4.10;;;;;;;;;;5133618;27;20465;-72
2022/10/10 08:38:41;;;;;;;5.23;4.00;;;;;;;;;;5133373;27;20480;-72
2022/10/10 08:41:09;;;;;;;8.77;4.47;;;;;;;;;;5134068;27;20456;-72
2022/10/10 08:43:40;;;;;;;7.30;4.57;;;;;;;;;;5133303;27;20812;-72
2022/10/10 08:46:09;;;;;;;8.77;4.40;;;;;;;;;;5133417;27;20476;-71
2022/10/10 08:48:37;;;;;;;4.80;4.40;;;;;;;;;;5134057;27;20803;-72
2022/10/10 08:51:07;;;;;;;4.43;4.03;;;;;;;;;;5133892;27;20445;-72
2022/10/10 08:53:36;;;;;;;8.27;3.50;;;;;;;;;;5133101;27;20440;-71
2022/10/10 08:56:06;;;;;;;5.47;4.37;;;;;;;;;;5133394;27;20480;-72
2022/10/10 08:58:35;;;;;;;6.87;3.97;;;;;;;;;;5133432;27;20484;-73
2022/10/10 09:01:04;;;;;;;5.50;4.60;;;;;;;;;;5133058;27;20448;-72
2022/10/10 09:03:35;;;;;;;7.97;6.13;;;;;;;;;;5143051;27;20447;-72
2022/10/10 09:06:12;;;;;;;5.57;4.10;;;;;;;;;;5153962;27;20546;-72
2022/10/10 09:08:43;;;;;;;7.20;4.27;;;;;;;;;;5152704;27;20443;-72
2022/10/10 09:11:17;;;;;;;6.97;4.80;;;;;;;;;;5153884;27;20975;-72
2022/10/10 09:13:50;;;;;;;6.07;3.70;;;;;;;;;;5152779;27;20451;-72
2022/10/10 09:16:22;;;;;;;6.40;3.93;;;;;;;;;;5153129;27;20478;-72
2022/10/10 09:18:54;;;;;;;5.57;3.90;;;;;;;;;;5153625;27;20472;-72
2022/10/10 09:21:25;;;;;;;4.97;3.87;;;;;;;;;;5153618;27;20435;-72
2022/10/10 09:23:54;;;;;;;4.37;3.80;;;;;;;;;;5153032;27;20555;-72
2022/10/10 09:26:24;;;;;;;6.50;4.00;;;;;;;;;;5153198;27;20553;-72
2022/10/10 09:28:53;;;;;;;5.63;4.00;;;;;;;;;;5153765;27;20440;-72
2022/10/10 09:31:23;;;;;;;8.13;3.63;;;;;;;;;;5153335;27;20936;-72
2022/10/10 09:33:54;;;;;;;4.07;3.67;;;;;;;;;;5153463;27;20944;-72
2022/10/10 09:36:24;;;;;;;4.17;3.77;;;;;;;;;;5153149;27;20976;-72
2022/10/10 09:38:54;;;;;;;6.73;3.60;;;;;;;;;;5152744;27;20479;-72
2022/10/10 09:41:23;;;;;;;4.03;3.30;;;;;;;;;;5153294;27;20444;-72
2022/10/10 09:43:55;;;;;;;4.07;3.67;;;;;;;;;;5152394;27;20436;-72
2022/10/10 09:46:22;;;;;;;5.93;4.03;;;;;;;;;;5152932;27;20470;-72
2022/10/10 09:48:49;;;;;;;4.57;3.47;;;;;;;;;;5153266;27;20438;-71
2022/10/10 09:51:17;;;;;;;4.50;3.20;;;;;;;;;;5153215;27;20451;-72
2022/10/10 09:53:47;;;;;;;4.53;3.50;;;;;;;;;;5152230;27;20455;-72
2022/10/10 09:56:16;;;;;;;6.23;3.23;;;;;;;;;;5152973;27;20490;-72
2022/10/10 09:58:44;;;;;;;5.97;5.20;;;;;;;;;;5153220;27;20479;-72
2022/10/10 10:01:16;;;;;;;5.37;3.57;;;;;;;;;;5152860;27;20451;-72
2022/10/10 10:03:43;;;;;;;5.43;3.10;;;;;;;;;;5152321;27;20447;-72
2022/10/10 10:06:12;;;;;;;4.97;3.80;;;;;;;;;;5152979;27;20463;-72
2022/10/10 10:08:40;;;;;;;5.63;3.40;;;;;;;;;;5153491;27;20484;-72
2022/10/10 10:11:21;;;;;;;6.40;3.13;;;;;;;;;;5153818;27;20466;-72
2022/10/10 10:13:54;;;;;;;7.47;4.40;;;;;;;;;;5153499;27;20932;-72
2022/10/10 10:16:29;;;;;;;4.60;3.63;;;;;;;;;;5154196;27;20463;-72
2022/10/10 10:18:56;;;;;;;7.27;4.07;;;;;;;;;;5149644;27;20866;-72
2022/10/10 10:21:24;;;;;;;5.73;3.50;;;;;;;;;;5139085;27;20455;-72
2022/10/10 10:23:53;;;;;;;8.40;3.50;;;;;;;;;;5140125;27;20485;-72
2022/10/10 10:26:23;;;;;;;6.87;3.73;;;;;;;;;;5140200;27;20464;-72
2022/10/10 10:28:51;;;;;;;7.23;3.70;;;;;;;;;;5140298;27;20451;-72
2022/10/10 10:31:25;;;;;;;12.53;4.00;;;;;;;;;;5140679;27;20830;-72
2022/10/10 10:33:58;;;;;;;10.30;3.90;;;;;;;;;;5140169;27;20926;-72
2022/10/10 10:36:29;;;;;;;5.40;3.50;;;;;;;;;;5140609;27;20834;-72
2022/10/10 10:39:01;;;;;;;5.77;3.60;;;;;;;;;;5140191;27;20494;-72
2022/10/10 10:41:33;;;;;;;5.97;3.40;;;;;;;;;;5140474;27;20447;-72
2022/10/10 10:44:12;;;;;;;6.43;3.13;;;;;;;;;;5140120;27;20436;-72
2022/10/10 10:46:43;;;;;;;6.10;4.37;;;;;;;;;;5140136;27;20555;-72
2022/10/10 10:49:14;;;;;;;5.43;3.83;;;;;;;;;;5140033;27;20444;-72
2022/10/10 10:52:02;;;;;;;4.90;2.90;;;;;;;;;;5140009;27;20879;-72
2022/10/10 10:54:35;;;;;;;6.40;3.47;;;;;;;;;;5133051;27;20456;-72
2022/10/10 10:57:10;;;;;;;4.47;3.30;;;;;;;;;;5140383;27;20424;-72
2022/10/10 10:59:44;;;;;;;3.83;3.43;;;;;;;;;;5140110;27;20490;-72
2022/10/10 11:02:21;;;;;;;4.83;3.10;;;;;;;;;;5139966;27;20448;-72
2022/10/10 11:04:56;;;;;;;8.00;2.63;;;;;;;;;;5139794;27;20471;-72
2022/10/10 11:07:24;;;;;;;5.37;2.77;;;;;;;;;;5140010;27;20953;-72
2022/10/10 11:09:54;;;;;;;3.50;2.90;;;;;;;;;;5140027;27;20974;-73
2022/10/10 11:12:38;;;;;;;4.87;2.90;;;;;;;;;;5139870;27;20467;-72
2022/10/10 11:15:09;;;;;;;3.17;2.57;;;;;;;;;;5139700;27;20479;-72
2022/10/10 11:17:39;;;;;;;9.13;3.20;;;;;;;;;;5139741;27;20448;-72
2022/10/10 11:20:12;;;;;;;4.77;3.40;;;;;;;;;;5150215;27;20450;-72
2022/10/10 11:22:41;;;;;;;3.77;2.83;;;;;;;;;;5159518;27;20476;-71
2022/10/10 11:25:14;;;;;;;5.57;3.47;;;;;;;;;;5158958;27;20473;-72
2022/10/10 11:27:46;;;;;;;5.73;3.00;;;;;;;;;;5159070;27;20800;-72
2022/10/10 11:30:15;;;;;;;10.27;3.30;;;;;;;;;;5158237;27;20455;-72
2022/10/10 11:32:48;;;;;;;5.47;2.77;;;;;;;;;;5155944;27;20443;-72
2022/10/10 11:35:19;;;;;;;3.90;2.80;;;;;;;;;;5154795;27;20472;-72
2022/10/10 11:37:49;;;;;;;5.43;2.67;;;;;;;;;;5156031;27;20537;-72
2022/10/10 11:40:26;;;;;;;9.03;3.17;;;;;;;;;;5156207;27;20458;-72
2022/10/10 11:42:57;;;;;;;5.67;2.77;;;;;;;;;;5155652;27;20446;-72
2022/10/10 11:45:26;;;;;;;9.23;3.00;;;;;;;;;;5155202;27;20486;-72
2022/10/10 11:47:57;;;;;;;5.37;2.77;;;;;;;;;;5155603;27;20486;-73
2022/10/10 11:50:26;;;;;;;6.83;3.40;;;;;;;;;;5155421;27;20431;-73
2022/10/10 11:52:57;;;;;;;9.63;2.73;;;;;;;;;;5155426;27;20447;-73
2022/10/10 11:55:27;;;;;;;11.70;2.70;;;;;;;;;;5154282;27;20464;-72
2022/10/10 11:57:58;;;;;;;7.33;2.90;;;;;;;;;;5155568;27;20448;-73
2022/10/10 12:00:27;;;;;;;4.53;2.70;;;;;;;;;;5155437;27;20435;-73
2022/10/10 12:02:55;;;;;;;4.77;2.73;;;;;;;;;;5155506;27;20453;-72
2022/10/10 12:05:23;;;;;;;10.37;3.07;;;;;;;;;;5154530;27;20467;-72
2022/10/10 12:08:01;;;;;;;7.07;3.10;;;;;;;;;;5155443;27;20444;-73
2022/10/10 12:10:32;;;;;;;12.07;2.87;;;;;;;;;;5154848;27;20545;-72
2022/10/10 12:13:07;;;;;;;3.90;3.07;;;;;;;;;;5155627;27;20956;-72
2022/10/10 12:15:35;;;;;;;5.43;2.60;;;;;;;;;;5154881;27;20455;-74
2022/10/10 12:18:02;;;;;;;4.43;3.00;;;;;;;;;;5154651;27;20432;-73
2022/10/10 12:20:32;;;;;;;5.40;2.77;;;;;;;;;;5155381;27;20456;-71
2022/10/10 12:23:10;;;;;;;6.47;2.50;;;;;;;;;;5155226;27;20458;-72
2022/10/10 12:25:41;;;;;;;5.13;2.70;;;;;;;;;;5153560;27;20490;-72
2022/10/10 12:28:23;;;;;;;12.10;2.73;;;;;;;;;;5155338;27;20526;-72
2022/10/10 12:31:08;;;;;;;3.30;2.97;;;;;;;;;;5155474;27;20454;-71
2022/10/10 12:33:50;;;;;;;7.03;3.20;;;;;;;;;;5153620;27;20441;-74
2022/10/10 12:36:39;;;;;;;4.80;2.40;;;;;;;;;;5153989;27;20232;-74
2022/10/10 12:39:24;;;;;;;7.30;2.77;;;;;;;;;;5112106;27;20493;-71
2022/10/10 12:41:55;;;;;;;4.43;2.87;;;;;;;;;;5153678;27;20456;-71
2022/10/10 12:44:26;;;;;;;6.60;2.95;;;;;;;;;;5153962;27;20441;-71
2022/10/10 12:47:08;;;;;;;6.43;2.47;;;;;;;;;;5155292;27;20205;-73
2022/10/10 12:49:35;;;;;;;4.90;2.60;;;;;;;;;;5153968;27;20522;-74
2022/10/10 12:52:04;;;;;;;4.77;3.00;;;;;;;;;;5155115;27;20444;-72
2022/10/10 12:54:34;;;;;;;5.47;2.70;;;;;;;;;;5154675;27;20458;-71
2022/10/10 12:57:07;;;;;;;5.47;2.60;;;;;;;;;;5154809;27;20452;-71
2022/10/10 12:59:38;;;;;;;5.80;3.00;;;;;;;;;;5155349;27;20487;-71
2022/10/10 13:02:10;;;;;;;8.13;3.43;;;;;;;;;;5155153;27;20427;-71
2022/10/10 13:04:41;;;;;;;4.63;2.43;;;;;;;;;;5154976;27;20851;-71
2022/10/10 13:07:12;;;;;;;4.47;2.70;;;;;;;;;;5154813;27;20446;-71
2022/10/10 13:09:39;;;;;;;5.57;2.60;;;;;;;;;;5154549;27;20434;-71
2022/10/10 13:12:07;;;;;;;13.83;3.30;;;;;;;;;;5155778;27;20478;-72
2022/10/10 13:14:40;;;;;;;5.83;3.00;;;;;;;;;;5155616;27;20462;-72
2022/10/10 13:17:21;;;;;;;7.37;3.50;;;;;;;;;;5155611;27;20431;-72
2022/10/10 13:19:48;;;;;;;6.63;3.03;;;;;;;;;;5156111;27;20892;-73
2022/10/10 13:22:15;;;;;;;8.10;2.70;;;;;;;;;;5156035;27;20960;-71
2022/10/10 13:24:43;;;;;;;8.40;2.93;;;;;;;;;;5155276;27;20474;-72
2022/10/10 13:27:15;;;;;;;6.17;3.43;;;;;;;;;;5155442;27;20498;-72
2022/10/10 13:29:44;;;;;;;6.03;2.90;;;;;;;;;;5155663;27;20425;-71
2022/10/10 13:32:13;;;;;;;7.50;2.90;;;;;;;;;;5155402;27;20511;-71
2022/10/10 13:34:43;;;;;;;11.23;3.40;;;;;;;;;;5155268;27;20464;-72
2022/10/10 13:37:13;;;;;;;5.00;2.80;;;;;;;;;;5155631;27;20453;-71
2022/10/10 13:39:40;;;;;;;5.93;3.10;;;;;;;;;;5155164;27;20520;-71
2022/10/10 13:42:26;;;;;;;5.00;3.00;;;;;;;;;;5155553;27;20476;-71
2022/10/10 13:44:58;;;;;;;7.40;2.80;;;;;;;;;;5154913;27;20463;-72
2022/10/10 13:47:44;;;;;;;13.33;4.00;;;;;;;;;;5155442;27;20440;-71
2022/10/10 13:50:20;;;;;;;6.23;4.50;;;;;;;;;;5155144;27;20480;-72
2022/10/10 13:52:47;;;;;;;6.70;2.90;;;;;;;;;;5155427;27;20900;-71
2022/10/10 13:55:15;;;;;;;5.90;2.73;;;;;;;;;;5154743;27;20463;-71
2022/10/10 13:57:42;;;;;;;8.03;3.33;;;;;;;;;;5155243;27;20786;-71
2022/10/10 14:00:16;;;;;;;6.57;3.10;;;;;;;;;;5155117;27;21069;-71
2022/10/10 14:02:44;;;;;;;5.57;3.10;;;;;;;;;;5155267;27;20437;-71
2022/10/10 14:05:16;;;;;;;5.33;2.57;;;;;;;;;;5154950;27;20971;-71
2022/10/10 14:07:47;;;;;;;6.80;2.70;;;;;;;;;;5155241;27;20439;-71
2022/10/10 14:10:17;;;;;;;3.33;2.53;;;;;;;;;;5155128;27;20436;-72
2022/10/10 14:12:49;;;;;;;13.40;3.10;;;;;;;;;;5154913;27;20952;-72
2022/10/10 14:15:40;;;;;;;7.20;3.30;;;;;;;;;;5155010;27;20471;-71
2022/10/10 14:18:15;;;;;;;5.67;2.97;;;;;;;;;;5129413;27;20831;-71
2022/10/10 14:20:42;;;;;;;5.73;2.40;;;;;;;;;;5154610;27;20471;-71
2022/10/10 14:23:09;;;;;;;6.47;3.03;;;;;;;;;;5154701;27;20452;-71
2022/10/10 14:25:38;;;;;;;6.10;3.30;;;;;;;;;;5154897;27;20467;-72
2022/10/10 14:28:05;;;;;;;8.30;3.40;;;;;;;;;;5154653;27;20444;-71
2022/10/10 14:30:34;;;;;;;5.80;2.57;;;;;;;;;;5154723;27;20450;-71
2022/10/10 14:33:02;;;;;;;5.80;2.67;;;;;;;;;;5155065;27;20840;-71
2022/10/10 14:35:30;;;;;;;7.57;3.10;;;;;;;;;;5154496;27;20467;-71
2022/10/10 14:37:57;;;;;;;3.40;2.43;;;;;;;;;;5154595;27;20447;-71
2022/10/10 14:40:24;;;;;;;7.53;3.33;;;;;;;;;;5154120;27;20476;-71
2022/10/10 14:42:52;;;;;;;4.40;2.60;;;;;;;;;;5154459;27;20496;-71
2022/10/10 14:45:19;;;;;;;7.33;3.03;;;;;;;;;;5154372;27;20475;-71
2022/10/10 14:47:46;;;;;;;9.73;3.57;;;;;;;;;;5154441;27;20554;-72
2022/10/10 14:50:15;;;;;;;7.97;3.00;;;;;;;;;;5154401;27;20474;-72
2022/10/10 14:52:44;;;;;;;5.10;2.90;;;;;;;;;;5154697;27;20450;-71
2022/10/10 14:55:12;;;;;;;4.70;2.97;;;;;;;;;;5154272;27;20968;-71